createdAt,value
2023-03-01T00:00:51.581Z,101620.22
2023-03-01T00:02:23.528Z,101620.22
2023-03-01T00:03:56.226Z,101615.81
2023-03-01T00:05:27.971Z,101614.94
2023-03-01T00:06:59.767Z,101618.47
2023-03-01T00:08:32.067Z,101622.81
2023-03-01T00:10:04.587Z,101620.19
2023-03-01T00:11:36.311Z,101625.44
2023-03-01T00:13:08.390Z,101625.44
2023-03-01T00:14:40.402Z,101623.69
2023-03-01T00:16:16.787Z,101620.16
2023-03-01T00:17:48.570Z,101620.16
2023-03-01T00:19:20.988Z,101610.50
2023-03-01T00:20:54.032Z,101612.25
2023-03-01T00:22:28.605Z,101604.34
2023-03-01T00:24:00.347Z,101611.34
2023-03-01T00:25:32.059Z,101614.84
2023-03-01T00:27:03.972Z,101609.56
2023-03-01T00:28:35.955Z,101611.31
2023-03-01T00:30:08.531Z,101609.56
2023-03-01T00:31:40.282Z,101615.69
2023-03-01T00:33:12.799Z,101614.84
2023-03-01T00:34:55.034Z,101621.88
2023-03-01T00:36:30.104Z,101612.19
2023-03-01T00:38:02.626Z,101618.34
2023-03-01T00:39:34.744Z,101613.09
2023-03-01T00:41:15.948Z,101607.81
2023-03-01T00:42:47.652Z,101602.56
2023-03-01T00:44:19.392Z,101603.44
2023-03-01T00:45:51.137Z,101604.28
2023-03-01T00:47:22.864Z,101603.41
2023-03-01T00:48:58.020Z,101599.00
2023-03-01T00:50:29.785Z,101599.00
2023-03-01T00:52:01.513Z,101598.13
2023-03-01T00:53:33.607Z,101587.63
2023-03-01T00:55:06.145Z,101585.00
2023-03-01T00:56:37.862Z,101588.50
2023-03-01T00:58:09.580Z,101588.50
2023-03-01T00:59:41.283Z,101582.34
2023-03-01T01:01:18.874Z,101582.31
2023-03-01T01:02:50.634Z,101579.69
2023-03-01T01:04:23.559Z,101589.31
2023-03-01T01:05:55.415Z,101584.94
2023-03-01T01:07:27.181Z,101591.06
2023-03-01T01:08:59.709Z,101591.94
2023-03-01T01:10:31.417Z,101584.91
2023-03-01T01:12:03.818Z,101591.06
2023-03-01T01:13:35.531Z,101588.41
2023-03-01T01:15:07.692Z,101591.03
2023-03-01T01:16:40.165Z,101587.53
2023-03-01T01:18:11.921Z,101591.00
2023-03-01T01:19:44.509Z,101589.25
2023-03-01T01:21:18.834Z,101585.75
2023-03-01T01:22:50.614Z,101591.00
2023-03-01T01:24:22.330Z,101590.13
2023-03-01T01:25:54.346Z,101586.63
2023-03-01T01:27:26.587Z,101585.72
2023-03-01T01:28:58.634Z,101578.72
2023-03-01T01:30:30.381Z,101583.13
2023-03-01T01:32:02.120Z,101582.22
2023-03-01T01:33:34.716Z,101574.34
2023-03-01T01:35:06.562Z,101582.22
2023-03-01T01:36:38.516Z,101572.59
2023-03-01T01:38:10.281Z,101577.84
2023-03-01T01:39:42.092Z,101566.47
2023-03-01T01:41:14.566Z,101560.34
2023-03-01T01:42:46.556Z,101563.81
2023-03-01T01:44:25.665Z,101569.97
2023-03-01T01:46:16.995Z,101571.66
2023-03-01T01:47:49.648Z,101567.31
2023-03-01T01:49:55.525Z,101565.53
2023-03-01T01:51:39.792Z,101568.16
2023-03-01T01:53:17.521Z,101569.91
2023-03-01T01:55:19.963Z,101572.47
2023-03-01T01:56:58.038Z,101574.25
2023-03-01T01:58:31.502Z,101566.34
2023-03-01T02:00:16.672Z,101568.09
2023-03-01T02:01:49.190Z,101562.84
2023-03-01T02:03:30.226Z,101563.69
2023-03-01T02:05:18.705Z,101564.53
2023-03-01T02:06:58.992Z,101564.53
2023-03-01T02:08:34.448Z,101560.16
2023-03-01T02:10:07.941Z,101560.16
2023-03-01T02:11:40.352Z,101552.28
2023-03-01T02:13:13.618Z,101554.91
2023-03-01T02:14:45.427Z,101554.03
2023-03-01T02:16:18.551Z,101556.66
2023-03-01T02:17:50.563Z,101554.88
2023-03-01T02:20:08.426Z,101551.34
2023-03-01T02:21:54.244Z,101552.22
2023-03-01T02:23:26.714Z,101549.59
2023-03-01T02:25:01.893Z,101546.09
2023-03-01T02:26:48.627Z,101552.19
2023-03-01T02:28:26.930Z,101551.34
2023-03-01T02:29:58.737Z,101554.81
2023-03-01T02:31:42.617Z,101541.66
2023-03-01T02:33:14.519Z,101535.53
2023-03-01T02:34:46.384Z,101544.28
2023-03-01T02:36:21.916Z,101537.25
2023-03-01T02:37:53.617Z,101532.00
2023-03-01T02:39:30.361Z,101527.63
2023-03-01T02:41:05.700Z,101523.25
2023-03-01T02:42:47.075Z,101528.47
2023-03-01T02:44:19.025Z,101523.19
2023-03-01T02:45:52.397Z,101522.34
2023-03-01T02:47:24.400Z,101529.31
2023-03-01T02:48:59.506Z,101524.06
2023-03-01T02:50:31.230Z,101521.44
2023-03-01T02:52:44.096Z,101514.44
2023-03-01T02:54:26.689Z,101522.31
2023-03-01T02:55:58.472Z,101524.94
2023-03-01T02:57:32.682Z,101529.31
2023-03-01T02:59:05.243Z,101527.56
2023-03-01T03:00:41.293Z,101524.94
2023-03-01T03:02:37.277Z,101527.53
2023-03-01T03:04:25.480Z,101529.31
2023-03-01T03:05:57.216Z,101526.66
2023-03-01T03:07:29.029Z,101528.44
2023-03-01T03:09:01.480Z,101530.19
2023-03-01T03:10:36.968Z,101529.31
2023-03-01T03:12:08.936Z,101526.69
2023-03-01T03:13:49.160Z,101523.19
2023-03-01T03:15:23.135Z,101524.06
2023-03-01T03:16:54.845Z,101519.72
2023-03-01T03:18:27.462Z,101510.94
2023-03-01T03:20:02.222Z,101510.94
2023-03-01T03:21:34.805Z,101515.34
2023-03-01T03:23:06.576Z,101505.69
2023-03-01T03:24:39.284Z,101503.97
2023-03-01T03:26:14.423Z,101511.84
2023-03-01T03:27:48.324Z,101510.97
2023-03-01T03:29:20.051Z,101512.72
2023-03-01T03:30:52.142Z,101510.94
2023-03-01T03:32:23.913Z,101501.31
2023-03-01T03:33:55.819Z,101508.28
2023-03-01T03:35:33.871Z,101504.81
2023-03-01T03:37:25.861Z,101514.41
2023-03-01T03:38:58.162Z,101513.56
2023-03-01T03:40:32.832Z,101507.41
2023-03-01T03:42:04.553Z,101504.75
2023-03-01T03:43:38.322Z,101500.34
2023-03-01T03:45:10.130Z,101496.88
2023-03-01T03:46:41.884Z,101494.22
2023-03-01T03:48:13.656Z,101500.34
2023-03-01T03:49:45.398Z,101499.44
2023-03-01T03:51:18.966Z,101492.41
2023-03-01T03:52:51.062Z,101496.78
2023-03-01T03:54:22.780Z,101502.88
2023-03-01T03:55:54.777Z,101495.00
2023-03-01T03:57:26.504Z,101498.50
2023-03-01T03:58:58.241Z,101495.84
2023-03-01T04:00:30.102Z,101501.09
2023-03-01T04:02:01.851Z,101497.63
2023-03-01T04:03:36.120Z,101496.69
2023-03-01T04:05:10.447Z,101496.72
2023-03-01T04:06:42.141Z,101502.81
2023-03-01T04:08:14.817Z,101508.94
2023-03-01T04:09:46.562Z,101506.28
2023-03-01T04:11:27.411Z,101506.28
2023-03-01T04:12:59.576Z,101508.88
2023-03-01T04:14:31.297Z,101513.25
2023-03-01T04:16:03.147Z,101511.50
2023-03-01T04:17:35.159Z,101515.88
2023-03-01T04:19:07.517Z,101517.63
2023-03-01T04:20:39.979Z,101508.88
2023-03-01T04:22:12.505Z,101515.00
2023-03-01T04:23:44.529Z,101511.50
2023-03-01T04:25:16.266Z,101513.25
2023-03-01T04:26:47.970Z,101522.00
2023-03-01T04:28:19.949Z,101507.16
2023-03-01T04:29:51.708Z,101503.63
2023-03-01T04:31:23.532Z,101507.97
2023-03-01T04:32:55.305Z,101509.75
2023-03-01T04:34:27.923Z,101506.22
2023-03-01T04:35:59.742Z,101505.38
2023-03-01T04:37:31.584Z,101501.88
2023-03-01T04:39:13.324Z,101496.63
2023-03-01T04:40:45.310Z,101494.00
2023-03-01T04:42:17.858Z,101490.50
2023-03-01T04:43:50.282Z,101502.75
2023-03-01T04:45:22.300Z,101500.97
2023-03-01T04:46:54.089Z,101503.59
2023-03-01T04:48:25.859Z,101501.84
2023-03-01T04:49:57.615Z,101503.56
2023-03-01T04:51:30.038Z,101509.72
2023-03-01T04:53:01.798Z,101512.31
2023-03-01T04:54:35.640Z,101507.94
2023-03-01T04:56:07.644Z,101504.44
2023-03-01T04:57:39.716Z,101502.66
2023-03-01T04:59:13.683Z,101509.66
2023-03-01T05:00:45.455Z,101511.41
2023-03-01T05:02:17.169Z,101509.66
2023-03-01T05:03:53.100Z,101504.41
2023-03-01T05:05:32.188Z,101499.13
2023-03-01T05:07:03.916Z,101506.13
2023-03-01T05:08:38.078Z,101502.63
2023-03-01T05:10:10.337Z,101499.97
2023-03-01T05:11:42.085Z,101509.63
2023-03-01T05:13:21.751Z,101498.22
2023-03-01T05:14:53.635Z,101498.22
2023-03-01T05:16:25.746Z,101501.72
2023-03-01T05:18:00.262Z,101495.56
2023-03-01T05:19:32.489Z,101502.56
2023-03-01T05:21:13.490Z,101503.41
2023-03-01T05:22:45.430Z,101500.81
2023-03-01T05:24:17.151Z,101499.03
2023-03-01T05:25:49.131Z,101498.16
2023-03-01T05:27:23.210Z,101497.25
2023-03-01T05:29:00.534Z,101495.47
2023-03-01T05:30:34.060Z,101502.47
2023-03-01T05:32:05.892Z,101494.59
2023-03-01T05:33:39.179Z,101491.97
2023-03-01T05:35:16.048Z,101491.91
2023-03-01T05:36:47.800Z,101489.31
2023-03-01T05:38:19.627Z,101486.66
2023-03-01T05:39:51.483Z,101483.16
2023-03-01T05:41:23.190Z,101485.75
2023-03-01T05:42:57.323Z,101484.88
2023-03-01T05:44:30.072Z,101482.25
2023-03-01T05:46:01.895Z,101483.97
2023-03-01T05:47:33.676Z,101487.47
2023-03-01T05:49:05.490Z,101485.69
2023-03-01T05:50:40.904Z,101490.91
2023-03-01T05:52:12.617Z,101490.03
2023-03-01T05:53:44.346Z,101490.00
2023-03-01T05:55:18.720Z,101488.25
2023-03-01T05:56:50.475Z,101491.75
2023-03-01T05:58:22.801Z,101486.47
2023-03-01T05:59:54.572Z,101488.25
2023-03-01T06:01:26.606Z,101493.50
2023-03-01T06:02:59.620Z,101490.88
2023-03-01T06:04:31.731Z,101483.84
2023-03-01T06:06:03.623Z,101496.13
2023-03-01T06:07:36.170Z,101497.00
2023-03-01T06:09:10.278Z,101502.22
2023-03-01T06:10:42.385Z,101501.34
2023-03-01T06:12:14.124Z,101497.03
2023-03-01T06:13:46.218Z,101494.41
2023-03-01T06:15:18.294Z,101494.41
2023-03-01T06:16:50.034Z,101496.16
2023-03-01T06:18:22.047Z,101497.06
2023-03-01T06:19:53.774Z,101499.69
2023-03-01T06:21:26.655Z,101499.69
2023-03-01T06:22:59.438Z,101499.72
2023-03-01T06:24:31.211Z,101497.97
2023-03-01T06:26:08.175Z,101497.97
2023-03-01T06:27:41.026Z,101496.25
2023-03-01T06:29:12.811Z,101496.25
2023-03-01T06:30:44.752Z,101498.91
2023-03-01T06:32:16.534Z,101505.03
2023-03-01T06:33:48.268Z,101498.06
2023-03-01T06:35:20.425Z,101505.94
2023-03-01T06:36:52.291Z,101505.97
2023-03-01T06:38:25.189Z,101512.13
2023-03-01T06:39:57.054Z,101511.25
2023-03-01T06:41:28.752Z,101502.53
2023-03-01T06:43:00.657Z,101509.53
2023-03-01T06:44:32.482Z,101514.78
2023-03-01T06:46:10.694Z,101512.19
2023-03-01T06:47:42.559Z,101514.88
2023-03-01T06:49:14.295Z,101514.00
2023-03-01T06:50:46.204Z,101514.91
2023-03-01T06:52:17.993Z,101514.00
2023-03-01T06:53:49.810Z,101513.16
2023-03-01T06:55:21.520Z,101507.09
2023-03-01T06:56:53.233Z,101512.34
2023-03-01T06:58:25.024Z,101514.09
2023-03-01T06:59:56.880Z,101511.50
2023-03-01T07:01:28.637Z,101510.66
2023-03-01T07:03:03.114Z,101512.44
2023-03-01T07:04:35.118Z,101506.34
2023-03-01T07:06:07.155Z,101510.75
2023-03-01T07:07:38.925Z,101512.53
2023-03-01T07:09:10.627Z,101507.34
2023-03-01T07:10:42.352Z,101511.72
2023-03-01T07:12:14.356Z,101502.13
2023-03-01T07:13:46.072Z,101509.16
2023-03-01T07:15:18.042Z,101510.91
2023-03-01T07:16:49.749Z,101503.97
2023-03-01T07:18:22.108Z,101504.00
2023-03-01T07:19:53.864Z,101502.28
2023-03-01T07:21:25.632Z,101509.31
2023-03-01T07:22:59.644Z,101504.94
2023-03-01T07:24:31.434Z,101493.63
2023-03-01T07:26:03.332Z,101491.88
2023-03-01T07:27:35.362Z,101494.56
2023-03-01T07:29:10.648Z,101491.06
2023-03-01T07:30:42.397Z,101483.19
2023-03-01T07:32:14.181Z,101483.22
2023-03-01T07:33:48.733Z,101488.53
2023-03-01T07:35:20.468Z,101477.16
2023-03-01T07:36:52.557Z,101477.19
2023-03-01T07:38:24.418Z,101466.69
2023-03-01T07:39:56.113Z,101474.59
2023-03-01T07:41:27.905Z,101482.47
2023-03-01T07:43:00.343Z,101477.25
2023-03-01T07:44:32.049Z,101474.66
2023-03-01T07:46:04.707Z,101471.13
2023-03-01T07:47:36.827Z,101475.53
2023-03-01T07:49:08.556Z,101482.56
2023-03-01T07:50:40.285Z,101475.56
2023-03-01T07:52:13.019Z,101471.19
2023-03-01T07:53:48.029Z,101471.19
2023-03-01T07:55:21.116Z,101479.13
2023-03-01T07:56:52.985Z,101477.38
2023-03-01T07:58:24.721Z,101468.63
2023-03-01T07:59:56.437Z,101476.50
2023-03-01T08:01:28.278Z,101465.97
2023-03-01T08:03:01.896Z,101467.72
2023-03-01T08:04:34.302Z,101465.06
2023-03-01T08:06:08.815Z,101465.94
2023-03-01T08:07:40.695Z,101461.56
2023-03-01T08:09:12.439Z,101468.59
2023-03-01T08:10:44.157Z,101462.41
2023-03-01T08:12:17.941Z,101459.78
2023-03-01T08:13:51.528Z,101459.78
2023-03-01T08:15:25.038Z,101459.75
2023-03-01T08:16:56.829Z,101459.72
2023-03-01T08:18:28.733Z,101457.06
2023-03-01T08:20:00.601Z,101454.44
2023-03-01T08:21:32.492Z,101446.53
2023-03-01T08:23:04.228Z,101451.78
2023-03-01T08:24:35.966Z,101441.19
2023-03-01T08:26:10.625Z,101435.03
2023-03-01T08:27:42.364Z,101442.91
2023-03-01T08:29:14.125Z,101444.63
2023-03-01T08:30:45.852Z,101435.81
2023-03-01T08:32:17.741Z,101436.69
2023-03-01T08:33:56.018Z,101443.66
2023-03-01T08:35:27.800Z,101443.63
2023-03-01T08:36:59.540Z,101441.84
2023-03-01T08:38:31.405Z,101439.19
2023-03-01T08:40:04.822Z,101445.28
2023-03-01T08:41:37.287Z,101443.50
2023-03-01T08:43:09.097Z,101435.59
2023-03-01T08:44:40.837Z,101440.81
2023-03-01T08:46:12.955Z,101438.13
2023-03-01T08:47:45.583Z,101448.66
2023-03-01T08:49:18.842Z,101438.91
2023-03-01T08:50:50.587Z,101433.63
2023-03-01T08:52:22.521Z,101445.00
2023-03-01T08:53:54.979Z,101443.22
2023-03-01T08:55:26.717Z,101439.66
2023-03-01T08:57:00.138Z,101444.91
2023-03-01T08:58:33.062Z,101436.09
2023-03-01T09:00:09.487Z,101443.94
2023-03-01T09:01:44.362Z,101436.84
2023-03-01T09:03:16.102Z,101436.81
2023-03-01T09:04:48.515Z,101432.41
2023-03-01T09:06:20.618Z,101425.31
2023-03-01T09:07:52.409Z,101427.03
2023-03-01T09:09:24.185Z,101423.44
2023-03-01T09:10:56.192Z,101416.38
2023-03-01T09:12:27.943Z,101416.31
2023-03-01T09:13:59.768Z,101415.38
2023-03-01T09:15:31.521Z,101417.09
2023-03-01T09:17:04.161Z,101413.50
2023-03-01T09:18:36.847Z,101405.53
2023-03-01T09:20:11.865Z,101407.22
2023-03-01T09:21:53.102Z,101401.88
2023-03-01T09:23:24.859Z,101390.38
2023-03-01T09:24:57.639Z,101392.94
2023-03-01T09:26:29.869Z,101392.00
2023-03-01T09:28:02.116Z,101386.69
2023-03-01T09:29:33.828Z,101385.69
2023-03-01T09:31:06.147Z,101387.41
2023-03-01T09:32:37.912Z,101385.56
2023-03-01T09:34:10.036Z,101386.38
2023-03-01T09:35:47.918Z,101382.75
2023-03-01T09:37:19.655Z,101388.88
2023-03-01T09:38:51.472Z,101393.22
2023-03-01T09:40:27.548Z,101398.41
2023-03-01T09:42:03.329Z,101389.50
2023-03-01T09:43:56.889Z,101385.94
2023-03-01T09:45:36.127Z,101383.19
2023-03-01T09:47:18.821Z,101385.75
2023-03-01T09:48:56.421Z,101384.69
2023-03-01T09:50:36.286Z,101389.03
2023-03-01T09:52:47.549Z,101387.16
2023-03-01T09:54:19.275Z,101378.16
2023-03-01T09:56:03.238Z,101381.63
2023-03-01T09:57:46.957Z,101386.75
2023-03-01T09:59:29.119Z,101383.84
2023-03-01T10:01:11.346Z,101383.63
2023-03-01T10:03:00.978Z,101385.88
2023-03-01T10:04:50.984Z,101384.56
2023-03-01T10:06:34.903Z,101381.41
2023-03-01T10:08:32.298Z,101371.09
2023-03-01T10:10:15.960Z,101374.84
2023-03-01T10:11:51.402Z,101369.75
2023-03-01T10:13:39.112Z,101368.13
2023-03-01T10:15:23.535Z,101371.66
2023-03-01T10:17:04.004Z,101367.22
2023-03-01T10:18:37.867Z,101369.75
2023-03-01T10:20:17.845Z,101373.25
2023-03-01T10:21:51.956Z,101366.22
2023-03-01T10:23:25.628Z,101366.22
2023-03-01T10:25:03.284Z,101366.28
2023-03-01T10:26:52.858Z,101352.94
2023-03-01T10:28:35.816Z,101367.06
2023-03-01T10:30:43.143Z,101364.28
2023-03-01T10:32:16.191Z,101361.41
2023-03-01T10:33:49.076Z,101361.41
2023-03-01T10:35:24.941Z,101361.28
2023-03-01T10:37:02.145Z,101352.31
2023-03-01T10:38:50.749Z,101359.38
2023-03-01T10:40:23.248Z,101349.34
2023-03-01T10:41:58.719Z,101350.25
2023-03-01T10:43:49.070Z,101350.16
2023-03-01T10:45:38.379Z,101344.78
2023-03-01T10:47:28.237Z,101348.25
2023-03-01T10:49:19.493Z,101339.34
2023-03-01T10:51:07.871Z,101338.66
2023-03-01T10:52:42.437Z,101325.59
2023-03-01T10:54:23.162Z,101320.88
2023-03-01T10:56:08.192Z,101323.56
2023-03-01T10:57:43.757Z,101312.22
2023-03-01T10:59:31.633Z,101311.91
2023-03-01T11:01:28.279Z,101315.94
2023-03-01T11:03:00.250Z,101308.44
2023-03-01T11:04:32.078Z,101315.09
2023-03-01T11:06:08.807Z,101312.78
2023-03-01T11:07:50.842Z,101312.78
2023-03-01T11:09:25.131Z,101305.97
2023-03-01T11:11:13.037Z,101300.38
2023-03-01T11:12:44.810Z,101308.63
2023-03-01T11:14:26.774Z,101309.06
2023-03-01T11:16:07.491Z,101308.38
2023-03-01T11:17:53.754Z,101307.66
2023-03-01T11:19:27.466Z,101299.06
2023-03-01T11:21:03.214Z,101303.81
2023-03-01T11:22:36.540Z,101309.13
2023-03-01T11:24:13.226Z,101306.00
2023-03-01T11:25:52.696Z,101304.88
2023-03-01T11:27:30.733Z,101308.09
2023-03-01T11:29:08.310Z,101294.34
2023-03-01T11:31:05.578Z,101301.28
2023-03-01T11:32:46.936Z,101292.28
2023-03-01T11:34:38.542Z,101294.88
2023-03-01T11:36:19.101Z,101290.34
2023-03-01T11:38:02.783Z,101297.09
2023-03-01T11:40:00.819Z,101294.59
2023-03-01T11:41:37.624Z,101291.47
2023-03-01T11:43:28.537Z,101292.59
2023-03-01T11:45:07.138Z,101294.84
2023-03-01T11:46:47.723Z,101285.78
2023-03-01T11:48:49.848Z,101287.72
2023-03-01T11:50:45.473Z,101294.16
2023-03-01T11:52:31.445Z,101276.56
2023-03-01T11:54:32.172Z,101277.69
2023-03-01T11:56:18.830Z,101284.53
2023-03-01T11:58:19.565Z,101273.84
2023-03-01T12:00:12.739Z,101267.19
2023-03-01T12:02:22.375Z,101267.28
2023-03-01T12:04:12.264Z,101261.31
2023-03-01T12:06:04.383Z,101264.09
2023-03-01T12:08:06.996Z,101270.81
2023-03-01T12:10:20.420Z,101263.78
2023-03-01T12:12:23.119Z,101254.34
2023-03-01T12:14:18.978Z,101257.28
2023-03-01T12:16:16.240Z,101255.56
2023-03-01T12:18:26.572Z,101255.28
2023-03-01T12:20:43.218Z,101260.06
2023-03-01T12:22:36.912Z,101250.19
2023-03-01T12:24:32.525Z,101258.34
2023-03-01T12:26:44.414Z,101249.75
2023-03-01T12:28:22.502Z,101248.00
2023-03-01T12:30:23.603Z,101246.81
2023-03-01T12:32:10.421Z,101248.16
2023-03-01T12:34:02.118Z,101247.91
2023-03-01T12:35:36.544Z,101253.63
2023-03-01T12:37:18.955Z,101244.78
2023-03-01T12:38:51.790Z,101243.56
2023-03-01T12:40:29.710Z,101239.59
2023-03-01T12:42:25.683Z,101231.94
2023-03-01T12:44:15.957Z,101232.44
2023-03-01T12:46:00.873Z,101224.56
2023-03-01T12:47:52.619Z,101230.09
2023-03-01T12:49:34.579Z,101224.28
2023-03-01T12:51:11.839Z,101230.63
2023-03-01T12:52:50.605Z,101233.47
2023-03-01T12:54:29.507Z,101220.28
2023-03-01T12:56:11.081Z,101223.22
2023-03-01T12:57:50.978Z,101218.50
2023-03-01T12:59:37.576Z,101213.16
2023-03-01T13:01:27.854Z,101218.66
2023-03-01T13:03:08.427Z,101215.19
2023-03-01T13:05:01.456Z,101210.03
2023-03-01T13:07:03.660Z,101206.16
2023-03-01T13:09:01.497Z,101204.75
2023-03-01T13:10:50.892Z,101207.66
2023-03-01T13:12:47.667Z,101207.97
2023-03-01T13:14:22.578Z,101202.72
2023-03-01T13:15:54.953Z,101203.09
2023-03-01T13:17:41.074Z,101216.09
2023-03-01T13:19:26.326Z,101213.63
2023-03-01T13:21:00.542Z,101214.06
2023-03-01T13:22:38.088Z,101211.88
2023-03-01T13:24:38.314Z,101210.72
2023-03-01T13:26:18.654Z,101209.00
2023-03-01T13:27:50.431Z,101204.09
2023-03-01T13:29:28.433Z,101200.81
2023-03-01T13:31:00.223Z,101208.88
2023-03-01T13:32:43.618Z,101209.91
2023-03-01T13:34:47.263Z,101193.13
2023-03-01T13:36:32.624Z,101207.41
2023-03-01T13:38:42.341Z,101201.63
2023-03-01T13:40:17.716Z,101202.34
2023-03-01T13:41:52.606Z,101207.75
2023-03-01T13:43:31.473Z,101204.31
2023-03-01T13:45:04.631Z,101198.00
2023-03-01T13:46:36.791Z,101201.38
2023-03-01T13:48:30.620Z,101198.06
2023-03-01T13:50:05.327Z,101194.31
2023-03-01T13:51:37.567Z,101187.16
2023-03-01T13:53:18.405Z,101194.94
2023-03-01T13:54:50.409Z,101181.19
2023-03-01T13:56:37.893Z,101181.91
2023-03-01T13:58:26.369Z,101184.91
2023-03-01T13:59:58.091Z,101185.47
2023-03-01T14:01:35.490Z,101179.91
2023-03-01T14:03:14.615Z,101178.78
2023-03-01T14:04:57.970Z,101176.88
2023-03-01T14:06:32.880Z,101182.56
2023-03-01T14:08:05.747Z,101175.00
2023-03-01T14:09:43.106Z,101174.63
2023-03-01T14:11:25.247Z,101170.66
2023-03-01T14:13:18.292Z,101168.25
2023-03-01T14:15:00.681Z,101174.69
2023-03-01T14:16:53.927Z,101177.03
2023-03-01T14:18:56.709Z,101170.41
2023-03-01T14:20:31.937Z,101168.03
2023-03-01T14:22:20.551Z,101169.81
2023-03-01T14:23:53.457Z,101171.47
2023-03-01T14:25:39.855Z,101163.69
2023-03-01T14:27:14.172Z,101164.22
2023-03-01T14:28:45.895Z,101158.84
2023-03-01T14:30:26.484Z,101156.06
2023-03-01T14:32:10.050Z,101165.59
2023-03-01T14:33:42.502Z,101158.19
2023-03-01T14:35:27.004Z,101149.06
2023-03-01T14:37:11.339Z,101154.09
2023-03-01T14:38:48.427Z,101150.91
2023-03-01T14:40:40.678Z,101153.34
2023-03-01T14:42:15.925Z,101148.22
2023-03-01T14:43:52.130Z,101139.16
2023-03-01T14:45:26.430Z,101145.09
2023-03-01T14:46:58.565Z,101129.59
2023-03-01T14:48:32.154Z,101132.88
2023-03-01T14:50:34.910Z,101127.31
2023-03-01T14:52:17.838Z,101129.59
2023-03-01T14:53:51.583Z,101129.97
2023-03-01T14:55:30.395Z,101134.25
2023-03-01T14:57:02.413Z,101128.44
2023-03-01T14:58:34.584Z,101122.88
2023-03-01T15:00:08.040Z,101114.03
2023-03-01T15:01:42.691Z,101115.09
2023-03-01T15:03:21.795Z,101115.44
2023-03-01T15:04:58.527Z,101115.53
2023-03-01T15:06:31.295Z,101114.72
2023-03-01T15:08:05.121Z,101124.03
2023-03-01T15:09:38.112Z,101123.44
2023-03-01T15:11:23.846Z,101123.03
2023-03-01T15:12:56.302Z,101128.38
2023-03-01T15:14:45.685Z,101121.63
2023-03-01T15:16:35.176Z,101124.94
2023-03-01T15:18:28.673Z,101124.59
2023-03-01T15:20:01.444Z,101116.63
2023-03-01T15:21:36.249Z,101122.34
2023-03-01T15:23:31.298Z,101124.06
2023-03-01T15:25:03.161Z,101118.00
2023-03-01T15:26:41.730Z,101121.13
2023-03-01T15:28:21.640Z,101110.72
2023-03-01T15:29:58.708Z,101115.56
2023-03-01T15:31:37.110Z,101111.56
2023-03-01T15:33:30.593Z,101108.78
2023-03-01T15:35:42.941Z,101113.44
2023-03-01T15:37:42.712Z,101110.28
2023-03-01T15:39:34.121Z,101108.16
2023-03-01T15:41:23.695Z,101112.03
2023-03-01T15:42:55.412Z,101114.31
2023-03-01T15:44:42.817Z,101114.19
2023-03-01T15:46:23.053Z,101111.97
2023-03-01T15:48:04.513Z,101111.75
2023-03-01T15:49:54.576Z,101111.34
2023-03-01T15:51:37.848Z,101110.22
2023-03-01T15:53:15.456Z,101106.13
2023-03-01T15:54:47.281Z,101103.03
2023-03-01T15:56:19.022Z,101103.50
2023-03-01T15:57:51.402Z,101104.81
2023-03-01T15:59:23.428Z,101105.19
2023-03-01T16:01:02.501Z,101101.13
2023-03-01T16:02:34.517Z,101112.22
2023-03-01T16:04:06.367Z,101107.16
2023-03-01T16:05:38.863Z,101108.28
2023-03-01T16:07:10.963Z,101107.66
2023-03-01T16:08:42.887Z,101106.97
2023-03-01T16:10:14.779Z,101107.09
2023-03-01T16:11:46.530Z,101110.88
2023-03-01T16:13:18.833Z,101106.63
2023-03-01T16:14:51.432Z,101115.63
2023-03-01T16:16:23.740Z,101114.91
2023-03-01T16:17:55.602Z,101112.44
2023-03-01T16:19:27.331Z,101108.16
2023-03-01T16:20:59.108Z,101108.38
2023-03-01T16:22:30.916Z,101109.53
2023-03-01T16:24:02.667Z,101108.81
2023-03-01T16:25:36.250Z,101110.94
2023-03-01T16:27:08.196Z,101109.47
2023-03-01T16:28:41.745Z,101113.38
2023-03-01T16:30:15.815Z,101115.50
2023-03-01T16:31:47.864Z,101123.03
2023-03-01T16:33:27.600Z,101121.69
2023-03-01T16:35:04.520Z,101132.88
2023-03-01T16:36:36.310Z,101132.47
2023-03-01T16:38:08.079Z,101137.44
2023-03-01T16:39:39.894Z,101141.53
2023-03-01T16:41:17.174Z,101144.81
2023-03-01T16:42:50.058Z,101134.78
2023-03-01T16:44:21.995Z,101143.28
2023-03-01T16:45:54.051Z,101135.91
2023-03-01T16:47:25.868Z,101140.91
2023-03-01T16:48:57.729Z,101138.72
2023-03-01T16:50:29.627Z,101137.50
2023-03-01T16:52:01.368Z,101140.69
2023-03-01T16:53:33.289Z,101138.56
2023-03-01T16:55:07.752Z,101130.16
2023-03-01T16:56:40.697Z,101128.88
2023-03-01T16:58:12.455Z,101136.41
2023-03-01T16:59:44.354Z,101126.16
2023-03-01T17:01:18.612Z,101133.63
2023-03-01T17:02:50.492Z,101129.56
2023-03-01T17:04:22.390Z,101132.59
2023-03-01T17:05:54.306Z,101127.63
2023-03-01T17:07:26.242Z,101132.34
2023-03-01T17:08:58.388Z,101134.41
2023-03-01T17:10:30.151Z,101134.66
2023-03-01T17:12:01.997Z,101138.44
2023-03-01T17:13:33.800Z,101133.38
2023-03-01T17:15:06.689Z,101130.03
2023-03-01T17:16:38.632Z,101129.38
2023-03-01T17:18:10.552Z,101130.50
2023-03-01T17:19:44.508Z,101129.75
2023-03-01T17:21:16.384Z,101139.69
2023-03-01T17:22:48.130Z,101138.09
2023-03-01T17:24:19.978Z,101142.63
2023-03-01T17:25:52.835Z,101142.75
2023-03-01T17:27:25.434Z,101140.22
2023-03-01T17:29:01.610Z,101143.88
2023-03-01T17:30:33.345Z,101140.44
2023-03-01T17:32:05.422Z,101146.75
2023-03-01T17:33:37.267Z,101149.50
2023-03-01T17:35:12.037Z,101148.75
2023-03-01T17:36:44.294Z,101153.28
2023-03-01T17:38:17.025Z,101153.38
2023-03-01T17:39:48.718Z,101164.09
2023-03-01T17:41:21.974Z,101162.44
2023-03-01T17:42:53.707Z,101159.88
2023-03-01T17:44:25.599Z,101163.53
2023-03-01T17:45:58.021Z,101156.63
2023-03-01T17:47:29.787Z,101158.44
2023-03-01T17:49:04.501Z,101158.53
2023-03-01T17:50:39.055Z,101165.66
2023-03-01T17:52:10.792Z,101168.41
2023-03-01T17:53:42.942Z,101173.75
2023-03-01T17:55:14.652Z,101169.41
2023-03-01T17:56:46.639Z,101170.38
2023-03-01T17:58:22.816Z,101170.44
2023-03-01T17:59:54.653Z,101166.09
2023-03-01T18:01:26.589Z,101170.56
2023-03-01T18:02:58.747Z,101165.34
2023-03-01T18:04:30.672Z,101169.78
2023-03-01T18:06:02.752Z,101172.50
2023-03-01T18:07:34.929Z,101167.28
2023-03-01T18:09:07.675Z,101168.19
2023-03-01T18:10:40.241Z,101168.25
2023-03-01T18:12:12.112Z,101165.66
2023-03-01T18:13:44.835Z,101169.25
2023-03-01T18:15:18.635Z,101165.81
2023-03-01T18:16:51.819Z,101168.50
2023-03-01T18:18:24.012Z,101165.94
2023-03-01T18:19:56.809Z,101166.88
2023-03-01T18:21:30.604Z,101169.59
2023-03-01T18:23:02.588Z,101164.38
2023-03-01T18:24:35.563Z,101166.19